CDT,Max TemperatureF,Mean TemperatureF,Min TemperatureF,Max Dew PointF,MeanDew PointF,Min DewpointF,Max Humidity, Mean Humidity, Min Humidity, Max Sea Level PressureIn, Mean Sea Level PressureIn, Min Sea Level PressureIn, Max VisibilityMiles, Mean VisibilityMiles, Min VisibilityMiles, Max Wind SpeedMPH, Mean Wind SpeedMPH, Max Gust SpeedMPH,PrecipitationIn, CloudCover, Events, WindDirDegrees
2013-3-1,35,33,31,30,29,28,92,87,82,30.01,29.97,29.94,10,5,2,10,5,14,0.03,8,Snow,285
2013-3-2,31,28,25,28,25,19,92,81,69,30.08,29.99,29.92,10,6,1,15,8,21,0.02,8,Snow,320
2013-3-3,33,28,23,21,17,15,81,65,49,30.12,30.07,30.01,10,8,2,14,7,20,T,6,Snow,327
2013-3-4,50,34,18,27,21,15,92,66,39,30.18,30.08,29.96,10,10,9,13,4,18,0.00,2,,166
2013-3-5,53,41,28,52,40,23,92,69,45,29.91,29.79,29.62,10,4,0,32,12,46,1.30,8,Fog-Rain-Snow-Thunderstorm,220
2013-3-6,31,29,26,25,23,21,85,82,78,30.27,30.03,29.87,10,4,0,23,13,35,0.01,8,Fog-Snow,305
2013-3-7,34,31,27,27,25,23,92,81,69,30.36,30.32,30.22,10,10,7,12,6,15,0.00,7,,18
2013-3-8,53,40,26,25,23,18,92,59,26,30.40,30.34,30.29,10,10,8,15,7,16,0.00,1,,49
2013-3-9,58,45,31,29,26,24,78,55,32,30.28,30.21,30.10,10,10,10,15,6,24,0.00,1,,154
2013-3-10,65,58,51,41,29,26,41,33,24,30.10,30.01,29.88,10,10,10,20,11,35,0.00,0,,172
2013-3-11,59,48,36,52,45,32,93,72,51,29.92,29.85,29.75,10,7,1,22,11,30,1.00,7,Rain,226
2013-3-12,49,40,30,29,28,26,82,64,46,30.14,30.04,29.92,10,10,10,15,6,20,0.00,3,,309
2013-3-13,40,33,26,27,20,16,85,65,44,30.35,30.22,30.09,10,10,10,20,10,29,0.00,5,,304
2013-3-14,46,33,20,31,18,8,89,57,24,30.40,30.33,30.23,10,10,5,13,4,18,T,3,Snow,313
2013-3-15,68,50,31,42,36,28,92,62,32,30.23,30.04,29.89,10,10,10,20,6,26,0.00,1,,222
2013-3-16,71,64,57,47,44,39,62,53,44,29.91,29.86,29.80,10,10,10,20,8,30,0.00,3,,251
2013-3-17,69,59,48,48,46,42,83,60,37,29.95,29.88,29.83,10,10,10,15,5,21,0.00,3,,210
2013-3-18,58,51,44,54,51,43,93,80,67,29.92,29.81,29.75,10,7,0,17,8,29,1.11,7,Fog-Rain-Thunderstorm,202
2013-3-19,52,42,31,39,25,7,100,60,19,30.15,30.06,29.93,10,7,0,21,7,26,0.00,2,Fog,317
2013-3-20,49,37,24,30,21,10,64,44,24,30.14,30.03,29.94,10,8,1,22,8,33,T,5,Snow,315
2013-3-21,37,27,17,14,11,8,74,55,35,30.03,30.00,29.97,10,10,10,17,6,23,0.00,0,,324
2013-3-22,44,35,25,27,19,13,68,53,37,30.06,30.02,29.99,10,10,10,8,2,12,T,7,,113
2013-3-23,51,44,37,42,37,30,100,85,68,30.00,29.93,29.76,10,6,1,8,1,,0.04,8,Rain,98
2013-3-24,56,44,32,50,42,26,100,85,70,29.76,29.56,29.35,10,7,1,26,10,41,0.69,8,Rain-Thunderstorm,209
2013-3-25,32,30,28,27,25,22,85,79,72,30.06,29.85,29.63,10,2,0,23,13,35,0.03,8,Fog-Snow,273
2013-3-26,33,31,28,27,25,23,85,76,66,30.31,30.14,30.01,10,6,2,15,8,21,0.01,8,Snow,306
2013-3-27,45,35,25,25,21,19,92,65,37,30.36,30.32,30.28,10,10,9,15,5,21,0.00,1,,306
2013-3-28,53,39,24,26,22,16,88,56,24,30.37,30.32,30.28,10,10,10,16,4,23,0.00,1,,333
2013-3-29,44,38,31,43,37,21,96,78,60,30.37,30.27,30.21,10,5,2,7,1,8,0.61,8,Rain,87
2013-3-30,57,47,37,50,42,36,100,78,55,30.22,30.13,29.96,10,4,0,10,4,28,0.44,6,Fog-Rain,132
2013-3-31,54,48,41,52,49,43,100,95,89,29.95,29.91,29.87,10,6,0,10,4,29,0.12,7,Fog-Rain,248